Curran, MI (48728)

5:44 PM EDT on March 31, 2015 (GMT -0400)
MesoWest | | Change Station
CLOSE
Current Station
Personal Weather Station
Location: Curran, MI
Elevation: 901 ft
Nearby Weather Stations

Elev 901 ft 44.73 °N, 83.81 °W | Updated 29 minutes ago

Partly Cloudy
Partly Cloudy
44 °F
Feels Like 40 °F
N
7
Wind Variable Wind from ENE
Gusts 12.0 mph

Today
High -- | Low -- °F
--% Chance of Precip.
Yesterday
High -- | Low -- °F
Precip. -- in
7:18 AM 8:01 PM
Waxing Gibbous, 89% visible
Pressure 29.93 in
Visibility 10.0 miles
Clouds Scattered Clouds 11000 ft
Windchill 40 °F
Dew Point 23 °F
Humidity 43%
Rainfall in
Snow Depth Not available.
UV 3 out of 12
Pollen 2.90 out of 12
Air Quality Not available.
Flu Activity Not available.
METAR KAPN 312054Z AUTO 11006KT 10SM SCT110 01/M05 A2990 RMK AO2 SLP134 T00111050 53001

More Conditions Fewer Conditions

Pressure 29.93 in
Visibility 10.0 miles
Clouds Scattered Clouds 11000 ft
Windchill 40 °F
Dew Point 23 °F
Humidity 43%
Rainfall in
Snow Depth Not available.
UV 3 out of 12
Pollen 2.90 out of 12
Air Quality Not available.
Flu Activity Not available.
METAR KAPN 312054Z AUTO 11006KT 10SM SCT110 01/M05 A2990 RMK AO2 SLP134 T00111050 53001

More Conditions Fewer Conditions

Nowcast | as of 5:00 PM EDT on March 31, 2015

At 6 PM...partly cloudy. Temperature 37. East winds 6 mph. At 8 PM...mostly cloudy. Chance of snow. Temperature 33. East winds 5 mph. At 10 PM...mostly cloudy. Chance of snow. Temperature 31. Light winds. At 12 am...mostly cloudy. Chance of snow. Temperature 29. Light winds.

×

10-Day Weather Forecast

Almanac

Astronomy

Mar. 31, 2015 Rise Set
Actual Time
Civil Twilight
Nautical Twilight
Astronomical Twilight
Moon
Length of Visible Light
Length of Day
Tomorrow will be .
, % of the Moon is Illuminated

Today's Extremes

State Highs State Lows

Community

WunderPhotos

Upload Photos

1,809,844 photos uploaded!

WunderBlogs® & News

Nearby

Air Quality

  Air Quality AQ Index Pollutant
Not available.

Snow Depth

Station Depth Elevation

Earthquake Activity

City Distance Mag. Time & Date
Minimum magnitude displayed is 2.5.

Coastal Water Temperatures

Place Temperature

Stations

Nearby Weather Stations

Station Location Temp. Windchill Dew Point Humidity Wind Precip. Elev Updated Type